Mount Clemens, MI

10:10 AM EDT del 31 Ottobre 2014 (GMT -0400)
Rivendell Sub | Change Station
CLOSE
Current Station
Stazione meteo personale
Location: Sterling Heights, MI
Altitudine: 610 ft
Stazioni meteo nelle vicinanze

Alt. 610 ft 42.59 °N, 82.97 °W | Updated 13 seconds ago

Light Rain
Pioggia leggera
42.4 °F
Sembra 42 °F
N
0.0
Vento Variabile Vento da Nord
Gusts 0.0 mph

Oggi
Massima -- | Minima -- °F
--% Possibilità di precip.
Ieri
Massima -- | Minima -- °F
Precip. -- in
8:04 AM 6:25 PM
Primo quarto, 55% visible
Pressione 29.90 in
Visibilità 7.0 miglia
Nuvole Molto nuvoloso 2400 ft
Coperto 3500 ft
Raffreddamento del vento 42 °F
Punto di rugiada 31 °F
Umidità 64%
Piovosità 0.04 in
Spessore del manto nevoso Non disponibile.
Raggi UV 0 fuori da 12
Polline .10 fuori da 12
Qualità dell'aria Non disponibile.
Flu Activity Non disponibile.
METAR KMTC 311355Z 24005KT 7SM -RA BKN024 OVC035 07/06 A2987 RMK SLP125 T00650062

More Conditions Fewer Conditions

Pressione 29.90 in
Visibilità 7.0 miglia
Nuvole Molto nuvoloso 2400 ft
Coperto 3500 ft
Raffreddamento del vento 42 °F
Punto di rugiada 31 °F
Umidità 64%
Piovosità 0.04 in
Spessore del manto nevoso Non disponibile.
Raggi UV 0 fuori da 12
Polline .10 fuori da 12
Qualità dell'aria Non disponibile.
Flu Activity Non disponibile.
METAR KMTC 311355Z 24005KT 7SM -RA BKN024 OVC035 07/06 A2987 RMK SLP125 T00650062

More Conditions Fewer Conditions

10-Day Weather Forecast

Almanac

Astronomia

Oct. 31, 2014 Alba Tramonto
Ora attuale
Crepuscolo civile
Crepuscolo nautico
Crepuscolo astronomico
Luna
Estensione della luce visibile
Lunghezza del giorno
Tomorrow will be .
, % of the Moon is Illuminated

Gli estremi di oggi

State Highs State Lows

Community

WunderPhotos

Upload Photos

1,766,617 foto caricate!

WunderBlogs® & News

Nearby

Qualità dell'aria

  Qualità dell'aria Indice AQ Inquinante
Not available.

Profondità neve

Stazione Profondità Altitudine

Attività sismica

Città  Distanza Mag. Data & Ora
Minimo Magnitudo Mostrato è 2.5.

Temperature delle acque costiere

Località Temperatura

Stazioni meteo nelle vicinanze